Time,TemperatureF,DewpointF,PressureIn,WindDirection,WindDirectionDegrees,WindSpeedMPH,WindSpeedGustMPH,Humidity,HourlyPrecipIn,Conditions,Clouds,dailyrainin,SoftwareType,DateUTC
2013-01-24 00:04:00,31.3,20.9,29.77,WSW,247,10.4,-999.0,65,-99.99,,,0.00,Acu-Link.com,2013-01-24 05:04:00,
2013-01-24 00:19:00,32.0,21.6,29.75,West,270,15.5,-999.0,65,-99.99,,,0.00,Acu-Link.com,2013-01-24 05:19:00,
2013-01-24 00:34:00,32.9,22.4,29.74,WSW,247,11.4,-999.0,65,-99.99,,,0.00,Acu-Link.com,2013-01-24 05:34:00,
2013-01-24 00:49:00,33.4,22.6,29.74,WSW,247,11.4,-999.0,64,-99.99,,,0.00,Acu-Link.com,2013-01-24 05:49:00,
2013-01-24 01:05:00,33.8,22.9,29.74,SW,225,15.0,-999.0,64,-99.99,,,0.00,Acu-Link.com,2013-01-24 06:05:00,
2013-01-24 01:20:00,34.0,23.5,29.73,SW,225,16.1,-999.0,65,-99.99,,,0.00,Acu-Link.com,2013-01-24 06:20:00,
2013-01-24 01:35:00,34.0,23.9,29.73,WSW,247,10.9,-999.0,66,-99.99,,,0.00,Acu-Link.com,2013-01-24 06:35:00,
2013-01-24 01:50:00,34.0,23.9,29.73,WSW,247,8.3,-999.0,66,-99.99,,,0.00,Acu-Link.com,2013-01-24 06:50:00,
2013-01-24 02:06:00,34.0,24.2,29.73,WSW,247,7.8,-999.0,67,-99.99,,,0.00,Acu-Link.com,2013-01-24 07:06:00,
2013-01-24 02:21:00,34.2,24.4,29.73,WSW,247,8.3,-999.0,67,-99.99,,,0.00,Acu-Link.com,2013-01-24 07:21:00,
2013-01-24 02:36:00,34.2,24.4,29.73,West,270,11.4,-999.0,67,-99.99,,,0.00,Acu-Link.com,2013-01-24 07:36:00,
2013-01-24 02:52:00,34.2,24.4,29.72,WNW,292,8.9,-999.0,67,-99.99,,,0.00,Acu-Link.com,2013-01-24 07:52:00,
2013-01-24 03:07:00,33.3,23.5,29.72,WNW,292,17.1,-999.0,67,-99.99,,,0.00,Acu-Link.com,2013-01-24 08:07:00,
2013-01-24 03:22:00,32.5,22.8,29.72,West,270,10.9,-999.0,67,-99.99,,,0.00,Acu-Link.com,2013-01-24 08:22:00,
2013-01-24 03:37:00,31.8,22.5,29.72,West,270,9.4,-999.0,68,-99.99,,,0.00,Acu-Link.com,2013-01-24 08:37:00,
2013-01-24 03:53:00,31.1,21.8,29.72,West,270,13.0,-999.0,68,-99.99,,,0.00,Acu-Link.com,2013-01-24 08:53:00,
2013-01-24 04:16:00,30.6,21.3,29.73,WNW,292,9.4,-999.0,68,-99.99,,,0.00,Acu-Link.com,2013-01-24 09:16:00,
2013-01-24 04:31:00,28.9,19.0,29.74,West,270,15.0,-999.0,66,-99.99,,,0.00,Acu-Link.com,2013-01-24 09:31:00,
2013-01-24 04:47:00,28.2,18.7,29.73,WNW,292,30.0,-999.0,67,-99.99,,,0.00,Acu-Link.com,2013-01-24 09:47:00,
2013-01-24 05:02:00,27.3,17.5,29.75,WNW,292,21.2,-999.0,66,-99.99,,,0.00,Acu-Link.com,2013-01-24 10:02:00,
2013-01-24 05:18:00,26.8,15.9,29.75,West,270,22.2,-999.0,63,-99.99,,,0.00,Acu-Link.com,2013-01-24 10:18:00,
2013-01-24 05:33:00,26.1,14.9,29.77,WNW,292,12.5,-999.0,62,-99.99,,,0.00,Acu-Link.com,2013-01-24 10:33:00,
2013-01-24 05:48:00,25.5,14.3,29.78,West,270,16.1,-999.0,62,-99.99,,,0.00,Acu-Link.com,2013-01-24 10:48:00,
2013-01-24 06:03:00,25.0,14.2,29.79,SW,225,4.7,-999.0,63,-99.99,,,0.00,Acu-Link.com,2013-01-24 11:03:00,
2013-01-24 06:18:00,24.4,14.0,29.80,WNW,292,9.9,-999.0,64,-99.99,,,0.00,Acu-Link.com,2013-01-24 11:18:00,
2013-01-24 06:33:00,24.1,14.1,29.80,West,270,12.5,-999.0,65,-99.99,,,0.00,Acu-Link.com,2013-01-24 11:33:00,
2013-01-24 06:49:00,23.9,13.2,29.81,WNW,292,20.7,-999.0,63,-99.99,,,0.00,Acu-Link.com,2013-01-24 11:49:00,
2013-01-24 07:04:00,23.7,13.0,29.82,West,270,19.7,-999.0,63,-99.99,,,0.00,Acu-Link.com,2013-01-24 12:04:00,
2013-01-24 07:19:00,23.4,12.7,29.84,West,270,16.1,-999.0,63,-99.99,,,0.00,Acu-Link.com,2013-01-24 12:19:00,
2013-01-24 07:34:00,23.2,11.8,29.85,West,270,18.1,-999.0,61,-99.99,,,0.00,Acu-Link.com,2013-01-24 12:34:00,
2013-01-24 07:49:00,22.5,11.5,29.86,NNW,337,21.7,-999.0,62,-99.99,,,0.00,Acu-Link.com,2013-01-24 12:49:00,
2013-01-24 08:04:00,21.7,13.8,29.88,SW,225,4.2,-999.0,71,-99.99,,,0.00,Acu-Link.com,2013-01-24 13:04:00,
2013-01-24 08:20:00,20.8,13.8,29.89,West,270,7.3,-999.0,74,-99.99,,,0.00,Acu-Link.com,2013-01-24 13:20:00,
2013-01-24 08:35:00,20.8,12.6,29.91,West,270,7.8,-999.0,70,-99.99,,,0.00,Acu-Link.com,2013-01-24 13:35:00,
2013-01-24 08:50:00,19.8,11.3,29.92,NNW,337,15.5,-999.0,69,-99.99,,,0.00,Acu-Link.com,2013-01-24 13:50:00,
2013-01-24 09:06:00,19.4,8.2,29.93,North,0,11.4,-999.0,61,-99.99,,,0.00,Acu-Link.com,2013-01-24 14:06:00,
2013-01-24 09:21:00,19.6,6.9,29.95,SW,225,14.0,-999.0,57,-99.99,,,0.00,Acu-Link.com,2013-01-24 14:21:00,
2013-01-24 09:36:00,19.2,6.9,29.96,West,270,15.0,-999.0,58,-99.99,,,0.00,Acu-Link.com,2013-01-24 14:36:00,
2013-01-24 09:52:00,19.2,6.9,29.98,West,270,13.0,-999.0,58,-99.99,,,0.00,Acu-Link.com,2013-01-24 14:52:00,
2013-01-24 10:07:00,19.0,4.3,30.00,WSW,247,11.9,-999.0,52,-99.99,,,0.00,Acu-Link.com,2013-01-24 15:07:00,
2013-01-24 10:22:00,19.2,5.3,30.02,SW,225,9.4,-999.0,54,-99.99,,,0.00,Acu-Link.com,2013-01-24 15:22:00,
2013-01-24 10:37:00,19.2,3.2,30.04,ESE,112,3.7,-999.0,49,-99.99,,,0.00,Acu-Link.com,2013-01-24 15:37:00,
2013-01-24 10:53:00,19.4,2.0,30.05,NNE,22,11.9,-999.0,46,-99.99,,,0.00,Acu-Link.com,2013-01-24 15:53:00,
2013-01-24 11:08:00,19.8,2.4,30.05,WSW,247,12.5,-999.0,46,-99.99,,,0.00,Acu-Link.com,2013-01-24 16:08:00,
2013-01-24 11:23:00,18.7,2.3,30.07,West,270,15.0,-999.0,48,-99.99,,,0.00,Acu-Link.com,2013-01-24 16:23:00,
2013-01-24 11:39:00,19.8,3.3,30.07,West,270,17.6,-999.0,48,-99.99,,,0.00,Acu-Link.com,2013-01-24 16:39:00,
2013-01-24 11:54:00,20.8,3.8,30.07,WNW,292,8.9,-999.0,47,-99.99,,,0.00,Acu-Link.com,2013-01-24 16:54:00,
2013-01-24 12:09:00,20.8,4.2,30.07,WSW,247,9.9,-999.0,48,-99.99,,,0.00,Acu-Link.com,2013-01-24 17:09:00,
2013-01-24 12:24:00,21.2,4.6,30.07,ESE,112,5.8,-999.0,48,-99.99,,,0.00,Acu-Link.com,2013-01-24 17:24:00,
2013-01-24 12:40:00,19.9,3.0,30.07,SW,225,8.3,-999.0,47,-99.99,,,0.00,Acu-Link.com,2013-01-24 17:40:00,
2013-01-24 12:55:00,19.6,2.2,30.08,NNW,337,8.9,-999.0,46,-99.99,,,0.00,Acu-Link.com,2013-01-24 17:55:00,
2013-01-24 13:10:00,20.5,2.6,30.08,NNW,337,7.3,-999.0,45,-99.99,,,0.00,Acu-Link.com,2013-01-24 18:10:00,
2013-01-24 13:25:00,22.5,3.4,30.08,SSW,202,6.3,-999.0,43,-99.99,,,0.00,Acu-Link.com,2013-01-24 18:25:00,
2013-01-24 13:41:00,22.1,3.1,30.07,West,270,11.4,-999.0,43,-99.99,,,0.00,Acu-Link.com,2013-01-24 18:41:00,
2013-01-24 13:56:00,23.0,5.8,30.07,ENE,67,7.8,-999.0,47,-99.99,,,0.00,Acu-Link.com,2013-01-24 18:56:00,
2013-01-24 14:11:00,22.1,5.4,30.07,NW,315,3.2,-999.0,48,-99.99,,,0.00,Acu-Link.com,2013-01-24 19:11:00,
2013-01-24 14:26:00,21.9,4.8,30.08,West,270,2.7,-999.0,47,-99.99,,,0.00,Acu-Link.com,2013-01-24 19:26:00,
2013-01-24 14:41:00,22.5,2.9,30.07,North,0,7.8,-999.0,42,-99.99,,,0.00,Acu-Link.com,2013-01-24 19:41:00,
2013-01-24 14:57:00,21.6,3.1,30.09,NW,315,3.7,-999.0,44,-99.99,,,0.00,Acu-Link.com,2013-01-24 19:57:00,
2013-01-24 15:12:00,21.9,2.4,30.10,SW,225,13.0,-999.0,42,-99.99,,,0.00,Acu-Link.com,2013-01-24 20:12:00,
2013-01-24 15:28:00,21.4,2.4,30.10,NNW,337,5.3,-999.0,43,-99.99,,,0.00,Acu-Link.com,2013-01-24 20:28:00,
2013-01-24 15:43:00,20.8,2.8,30.11,SSW,202,4.2,-999.0,45,-99.99,,,0.00,Acu-Link.com,2013-01-24 20:43:00,
2013-01-24 15:58:00,21.6,2.6,30.13,WSW,247,5.8,-999.0,43,-99.99,,,0.00,Acu-Link.com,2013-01-24 20:58:00,
2013-01-24 16:14:00,20.8,1.9,30.13,SSE,157,1.1,-999.0,43,-99.99,,,0.00,Acu-Link.com,2013-01-24 21:14:00,
2013-01-24 16:29:00,20.5,1.6,30.15,NE,45,3.7,-999.0,43,-99.99,,,0.00,Acu-Link.com,2013-01-24 21:29:00,
2013-01-24 16:44:00,19.9,2.0,30.16,WSW,247,3.2,-999.0,45,-99.99,,,0.00,Acu-Link.com,2013-01-24 21:44:00,
2013-01-24 17:00:00,19.6,1.7,30.16,ESE,112,1.7,-999.0,45,-99.99,,,0.00,Acu-Link.com,2013-01-24 22:00:00,
2013-01-24 17:15:00,19.8,2.4,30.16,NNW,337,3.2,-999.0,46,-99.99,,,0.00,Acu-Link.com,2013-01-24 22:15:00,
2013-01-24 17:30:00,18.3,1.9,30.17,NNE,22,4.7,-999.0,48,-99.99,,,0.00,Acu-Link.com,2013-01-24 22:30:00,
2013-01-24 17:45:00,17.4,1.5,30.19,NNE,22,2.7,-999.0,49,-99.99,,,0.00,Acu-Link.com,2013-01-24 22:45:00,
2013-01-24 18:01:00,16.7,1.3,30.19,WSW,247,4.2,-999.0,50,-99.99,,,0.00,Acu-Link.com,2013-01-24 23:01:00,
2013-01-24 18:16:00,16.3,1.4,30.19,WSW,247,5.8,-999.0,51,-99.99,,,0.00,Acu-Link.com,2013-01-24 23:16:00,
2013-01-24 18:31:00,16.2,1.7,30.20,West,270,2.7,-999.0,52,-99.99,,,0.00,Acu-Link.com,2013-01-24 23:31:00,
2013-01-24 18:47:00,15.4,2.2,30.22,SW,225,2.2,-999.0,55,-99.99,,,0.00,Acu-Link.com,2013-01-24 23:47:00,
2013-01-24 19:02:00,15.1,1.9,30.22,SW,225,3.2,-999.0,55,-99.99,,,0.00,Acu-Link.com,2013-01-25 00:02:00,
2013-01-24 19:17:00,14.7,2.6,30.23,SW,225,1.1,-999.0,58,-99.99,,,0.00,Acu-Link.com,2013-01-25 00:17:00,
2013-01-24 19:33:00,14.4,2.7,30.23,WNW,292,2.2,-999.0,59,-99.99,,,0.00,Acu-Link.com,2013-01-25 00:33:00,
2013-01-24 19:48:00,14.2,2.2,30.24,NE,45,4.2,-999.0,58,-99.99,,,0.00,Acu-Link.com,2013-01-25 00:48:00,
2013-01-24 20:03:00,14.4,2.4,30.24,SSW,202,2.7,-999.0,58,-99.99,,,0.00,Acu-Link.com,2013-01-25 01:03:00,
2013-01-24 20:18:00,13.6,2.7,30.24,SW,225,3.2,-999.0,61,-99.99,,,0.00,Acu-Link.com,2013-01-25 01:18:00,
2013-01-24 20:34:00,13.1,2.2,30.24,West,270,2.7,-999.0,61,-99.99,,,0.00,Acu-Link.com,2013-01-25 01:34:00,
2013-01-24 20:49:00,13.1,2.6,30.23,NW,315,2.2,-999.0,62,-99.99,,,0.00,Acu-Link.com,2013-01-25 01:49:00,
2013-01-24 21:04:00,12.7,3.2,30.24,WSW,247,2.7,-999.0,65,-99.99,,,0.00,Acu-Link.com,2013-01-25 02:04:00,
2013-01-24 21:20:00,12.2,2.7,30.24,NW,315,1.7,-999.0,65,-99.99,,,0.00,Acu-Link.com,2013-01-25 02:20:00,
2013-01-24 21:35:00,12.0,3.8,30.24,WNW,292,1.7,-999.0,69,-99.99,,,0.00,Acu-Link.com,2013-01-25 02:35:00,
2013-01-24 21:50:00,11.1,3.0,30.24,WNW,292,2.2,-999.0,69,-99.99,,,0.00,Acu-Link.com,2013-01-25 02:50:00,
2013-01-24 22:06:00,12.2,2.7,30.22,WNW,292,0.0,-999.0,65,-99.99,,,0.00,Acu-Link.com,2013-01-25 03:06:00,
2013-01-24 22:21:00,11.3,3.1,30.23,WNW,292,2.7,-999.0,69,-99.99,,,0.00,Acu-Link.com,2013-01-25 03:21:00,
2013-01-24 22:36:00,11.1,3.6,30.23,West,270,1.7,-999.0,71,-99.99,,,0.00,Acu-Link.com,2013-01-25 03:36:00,
2013-01-24 22:51:00,10.6,4.0,30.23,SSW,202,1.7,-999.0,74,-99.99,,,0.00,Acu-Link.com,2013-01-25 03:51:00,
2013-01-24 23:07:00,10.0,4.3,30.22,SE,135,1.1,-999.0,77,-99.99,,,0.00,Acu-Link.com,2013-01-25 04:07:00,
2013-01-24 23:22:00,9.9,4.4,30.23,SSW,202,2.7,-999.0,78,-99.99,,,0.00,Acu-Link.com,2013-01-25 04:22:00,
2013-01-24 23:38:00,9.9,4.4,30.22,East,90,1.1,-999.0,78,-99.99,,,0.00,Acu-Link.com,2013-01-25 04:38:00,
2013-01-24 23:53:00,9.5,4.6,30.22,ESE,112,3.2,-999.0,80,-99.99,,,0.00,Acu-Link.com,2013-01-25 04:53:00,